createdAt,value
2019-02-18T00:01:09.914Z,40.20
2019-02-18T00:03:40.570Z,38.70
2019-02-18T00:06:11.234Z,41.13
2019-02-18T00:08:48.582Z,40.90
2019-02-18T00:11:21.975Z,39.53
2019-02-18T00:13:52.767Z,39.67
2019-02-18T00:16:27.789Z,38.83
2019-02-18T00:18:54.784Z,36.43
2019-02-18T00:21:25.123Z,38.67
2019-02-18T00:23:54.207Z,37.17
2019-02-18T00:26:46.693Z,37.27
2019-02-18T00:29:11.390Z,36.63
2019-02-18T00:31:45.918Z,36.87
2019-02-18T00:34:28.349Z,38.73
2019-02-18T00:37:24.106Z,39.43
2019-02-18T00:39:57.820Z,39.43
2019-02-18T00:42:39.798Z,36.97
2019-02-18T00:45:20.257Z,36.80
2019-02-18T00:48:02.273Z,39.47
2019-02-18T00:50:35.088Z,38.30
2019-02-18T00:53:20.554Z,37.93
2019-02-18T00:55:56.582Z,40.13
2019-02-18T00:58:43.724Z,38.53
2019-02-18T01:01:14.728Z,39.03
2019-02-18T01:03:51.461Z,37.97
2019-02-18T01:06:28.135Z,36.33
2019-02-18T01:09:04.782Z,38.53
2019-02-18T01:11:36.723Z,38.83
2019-02-18T01:14:12.184Z,37.47
2019-02-18T01:16:47.105Z,37.00
2019-02-18T01:19:28.136Z,36.47
2019-02-18T01:21:58.930Z,35.20
2019-02-18T01:24:40.123Z,36.50
2019-02-18T01:27:14.806Z,34.97
2019-02-18T01:30:00.954Z,37.33
2019-02-18T01:32:40.465Z,35.53
2019-02-18T01:35:40.564Z,37.00
2019-02-18T01:38:26.155Z,37.30
2019-02-18T01:40:59.728Z,32.33
2019-02-18T01:43:41.213Z,32.57
2019-02-18T01:46:37.969Z,33.57
2019-02-18T01:49:11.956Z,35.20
2019-02-18T01:52:31.585Z,33.90
2019-02-18T01:54:43.347Z,31.97
2019-02-18T01:57:13.812Z,31.07
2019-02-18T01:59:52.109Z,32.37
2019-02-18T02:02:22.756Z,31.50
2019-02-18T02:05:07.238Z,32.13
2019-02-18T02:08:00.498Z,29.87
2019-02-18T02:10:36.039Z,30.00
2019-02-18T02:13:28.099Z,30.67
2019-02-18T02:16:01.414Z,29.87
2019-02-18T02:18:42.385Z,29.40
2019-02-18T02:24:21.982Z,28.70
2019-02-18T02:27:04.197Z,28.57
2019-02-18T02:29:49.307Z,28.27
2019-02-18T02:32:19.332Z,26.90
2019-02-18T02:35:07.141Z,28.73
2019-02-18T02:37:47.507Z,27.00
2019-02-18T02:40:18.134Z,26.57
2019-02-18T02:42:58.119Z,24.47
2019-02-18T02:45:28.265Z,25.50
2019-02-18T02:47:57.244Z,24.77
2019-02-18T02:50:26.157Z,27.20
2019-02-18T02:53:07.098Z,26.17
2019-02-18T02:55:37.984Z,24.63
2019-02-18T02:58:08.682Z,23.57
2019-02-18T03:00:50.855Z,23.07
2019-02-18T03:03:30.262Z,25.07
2019-02-18T03:06:08.978Z,22.63
2019-02-18T03:08:59.998Z,22.43
2019-02-18T03:11:42.417Z,21.87
2019-02-18T03:14:15.315Z,20.50
2019-02-18T03:16:52.599Z,22.03
2019-02-18T03:22:35.941Z,20.43
2019-02-18T03:25:44.415Z,21.87
2019-02-18T03:28:41.619Z,19.53
2019-02-18T03:31:21.413Z,19.93
2019-02-18T03:34:15.217Z,20.17
2019-02-18T03:36:50.138Z,19.80
2019-02-18T03:39:24.021Z,19.80
2019-02-18T03:42:13.812Z,20.20
2019-02-18T03:44:50.845Z,18.93
2019-02-18T03:47:53.808Z,19.93
2019-02-18T03:50:03.346Z,18.50
2019-02-18T03:52:36.205Z,18.30
2019-02-18T03:55:12.183Z,18.97
2019-02-18T03:57:49.898Z,17.73
2019-02-18T04:00:23.352Z,17.87
2019-02-18T04:03:03.621Z,17.90
2019-02-18T04:05:45.112Z,17.97
2019-02-18T04:08:17.888Z,17.10
2019-02-18T04:10:53.464Z,18.80
2019-02-18T04:13:22.892Z,17.20
2019-02-18T04:16:06.422Z,16.87
2019-02-18T04:18:56.441Z,16.40
2019-02-18T04:21:29.168Z,16.43
2019-02-18T04:23:58.108Z,15.53
2019-02-18T04:26:29.010Z,16.87
2019-02-18T04:29:05.234Z,16.07
2019-02-18T04:32:01.698Z,15.97
2019-02-18T04:34:32.383Z,16.73
2019-02-18T04:37:23.634Z,16.53
2019-02-18T04:39:53.812Z,14.87
2019-02-18T04:42:22.819Z,14.53
2019-02-18T04:44:51.921Z,14.93
2019-02-18T04:47:26.261Z,14.47
2019-02-18T04:49:56.837Z,15.57
2019-02-18T04:52:25.802Z,13.83
2019-02-18T04:54:54.946Z,13.63
2019-02-18T04:57:37.478Z,13.43
2019-02-18T05:00:21.030Z,14.10
2019-02-18T05:02:56.085Z,14.27
2019-02-18T05:05:42.244Z,12.67
2019-02-18T05:08:40.792Z,12.77
2019-02-18T05:11:10.424Z,12.43
2019-02-18T05:13:39.555Z,12.87
2019-02-18T05:16:35.345Z,12.87
2019-02-18T05:18:58.489Z,12.33
2019-02-18T05:21:36.129Z,12.20
2019-02-18T05:24:06.777Z,11.97
2019-02-18T05:26:36.859Z,12.00
2019-02-18T05:29:09.426Z,12.03
2019-02-18T05:31:47.788Z,12.10
2019-02-18T05:34:17.047Z,12.20
2019-02-18T05:36:55.363Z,13.23
2019-02-18T05:39:29.656Z,12.60
2019-02-18T05:42:01.819Z,11.10
2019-02-18T05:44:49.251Z,11.93
2019-02-18T05:47:22.937Z,11.60
2019-02-18T05:49:54.725Z,11.33
2019-02-18T05:52:25.583Z,11.67
2019-02-18T05:54:58.972Z,12.57
2019-02-18T05:57:31.702Z,12.27
2019-02-18T06:00:13.549Z,12.30
2019-02-18T06:02:49.531Z,13.00
2019-02-18T06:05:27.441Z,12.37
2019-02-18T06:08:17.016Z,12.60
2019-02-18T06:11:08.739Z,12.47
2019-02-18T06:13:37.650Z,12.97
2019-02-18T06:16:31.869Z,12.87
2019-02-18T06:19:04.159Z,14.93
2019-02-18T06:22:04.237Z,14.00
2019-02-18T06:24:36.940Z,14.97
2019-02-18T06:27:29.265Z,15.97
2019-02-18T06:30:03.067Z,14.50
2019-02-18T06:33:12.696Z,14.00
2019-02-18T06:35:44.082Z,14.77
2019-02-18T06:38:13.281Z,14.10
2019-02-18T06:40:53.795Z,13.87
2019-02-18T06:43:24.323Z,15.90
2019-02-18T06:46:23.228Z,16.57
2019-02-18T06:52:12.852Z,15.97
2019-02-18T06:54:42.237Z,15.77
2019-02-18T06:57:28.909Z,16.33
2019-02-18T07:00:03.999Z,17.00
2019-02-18T07:02:45.350Z,17.77
2019-02-18T07:05:36.834Z,17.00
2019-02-18T07:08:25.991Z,17.53
2019-02-18T07:11:09.930Z,16.90
2019-02-18T07:13:41.520Z,17.70
2019-02-18T07:16:21.460Z,17.90
2019-02-18T07:18:43.333Z,18.47
2019-02-18T07:21:12.203Z,19.67
2019-02-18T07:24:02.932Z,21.57
2019-02-18T07:26:46.899Z,17.50
2019-02-18T07:29:15.715Z,18.37
2019-02-18T07:32:20.667Z,18.13
2019-02-18T07:34:53.067Z,17.00
2019-02-18T07:37:38.775Z,21.00
2019-02-18T07:40:10.531Z,18.47
2019-02-18T07:43:02.743Z,19.70
2019-02-18T07:45:39.278Z,20.03
2019-02-18T07:48:10.035Z,20.57
2019-02-18T07:50:39.762Z,25.43
2019-02-18T07:53:25.218Z,21.90
2019-02-18T07:55:55.223Z,22.83
2019-02-18T07:58:27.929Z,24.00
2019-02-18T08:01:06.986Z,25.07
2019-02-18T08:03:35.922Z,25.23
2019-02-18T08:06:04.767Z,24.23
2019-02-18T08:08:33.735Z,27.47
2019-02-18T08:11:02.903Z,24.07
2019-02-18T08:16:53.753Z,26.20
2019-02-18T08:19:22.713Z,27.10
2019-02-18T08:21:51.658Z,27.07
2019-02-18T08:24:22.655Z,27.93
2019-02-18T08:26:58.621Z,25.83
2019-02-18T08:29:48.198Z,26.23
2019-02-18T08:32:18.847Z,27.60
2019-02-18T08:34:55.448Z,23.40
2019-02-18T08:37:30.374Z,25.33
2019-02-18T08:40:01.093Z,24.30
2019-02-18T08:42:31.079Z,26.47
2019-02-18T08:45:19.132Z,24.33
2019-02-18T08:47:49.995Z,22.53
2019-02-18T08:50:24.668Z,24.50
2019-02-18T08:52:53.595Z,24.87
2019-02-18T08:55:41.371Z,22.37
2019-02-18T09:01:06.463Z,24.00
2019-02-18T09:03:49.939Z,23.83
2019-02-18T09:06:18.961Z,26.20
2019-02-18T09:08:49.653Z,22.27
2019-02-18T09:11:18.609Z,21.67
2019-02-18T09:13:49.108Z,22.03
2019-02-18T09:16:19.898Z,23.37
2019-02-18T09:21:53.132Z,23.50
2019-02-18T09:24:35.007Z,22.57
2019-02-18T09:27:06.405Z,22.47
2019-02-18T09:32:16.760Z,20.60
2019-02-18T09:35:01.590Z,20.00
2019-02-18T09:37:37.872Z,21.73
2019-02-18T09:40:07.216Z,21.27
2019-02-18T09:45:24.609Z,22.40
2019-02-18T09:47:43.088Z,19.93
2019-02-18T09:50:15.625Z,19.17
2019-02-18T09:52:48.114Z,19.33
2019-02-18T09:55:34.644Z,19.00
2019-02-18T09:58:15.853Z,19.40
2019-02-18T10:00:47.406Z,19.07
2019-02-18T10:03:29.241Z,19.57
2019-02-18T10:05:55.647Z,19.80
2019-02-18T10:08:29.706Z,19.40
2019-02-18T10:11:02.231Z,20.63
2019-02-18T10:16:20.974Z,20.77
2019-02-18T10:18:54.230Z,18.87
2019-02-18T10:21:31.000Z,20.73
2019-02-18T10:24:02.386Z,19.93
2019-02-18T10:26:38.438Z,21.10
2019-02-18T10:29:07.295Z,20.47
2019-02-18T10:31:39.553Z,19.77
2019-02-18T10:34:08.407Z,20.67
2019-02-18T10:37:09.325Z,19.90
2019-02-18T10:39:38.214Z,21.13
2019-02-18T10:42:07.014Z,18.93
2019-02-18T10:47:34.667Z,21.90
2019-02-18T10:50:05.622Z,21.50
2019-02-18T10:52:47.096Z,22.73
2019-02-18T10:55:18.768Z,21.47
2019-02-18T10:57:57.649Z,21.20
2019-02-18T11:00:27.841Z,21.80
2019-02-18T11:03:02.589Z,21.10
2019-02-18T11:05:31.706Z,22.63
2019-02-18T11:08:00.803Z,25.50
2019-02-18T11:10:29.761Z,22.27
2019-02-18T11:13:02.693Z,23.07
2019-02-18T11:15:59.338Z,23.00
2019-02-18T11:18:28.713Z,22.47
2019-02-18T11:21:15.103Z,23.73
2019-02-18T11:23:44.867Z,26.43
2019-02-18T11:26:24.230Z,24.80
2019-02-18T11:28:53.251Z,24.17
2019-02-18T11:31:22.209Z,26.77
2019-02-18T11:34:00.966Z,24.50
2019-02-18T11:36:39.067Z,24.47
2019-02-18T11:39:15.400Z,25.00
2019-02-18T11:41:44.667Z,25.10
2019-02-18T11:46:52.692Z,27.67
2019-02-18T11:49:47.459Z,28.93
2019-02-18T11:52:16.299Z,26.73
2019-02-18T11:54:45.930Z,26.20
2019-02-18T11:57:15.038Z,27.13
2019-02-18T11:59:44.284Z,27.17
2019-02-18T12:02:14.390Z,28.17
2019-02-18T12:04:58.241Z,27.67
2019-02-18T12:07:27.170Z,27.27
2019-02-18T12:09:56.072Z,29.40
2019-02-18T12:12:34.488Z,27.00
2019-02-18T12:15:45.237Z,26.13
2019-02-18T12:17:55.288Z,28.10
2019-02-18T12:20:24.894Z,29.17
2019-02-18T12:22:53.935Z,27.60
2019-02-18T12:25:46.727Z,27.43
2019-02-18T12:28:15.645Z,27.93
2019-02-18T12:31:25.692Z,28.80
2019-02-18T12:33:58.320Z,26.50
2019-02-18T12:36:27.370Z,27.33
2019-02-18T12:38:59.567Z,26.17
2019-02-18T12:41:32.867Z,27.57
2019-02-18T12:44:03.274Z,25.63
2019-02-18T12:46:53.920Z,27.60
2019-02-18T12:49:29.202Z,27.00
2019-02-18T12:51:55.587Z,27.80
2019-02-18T12:54:43.626Z,27.50
2019-02-18T12:57:12.794Z,24.13
2019-02-18T12:59:48.335Z,26.77
2019-02-18T13:02:43.615Z,26.53
2019-02-18T13:05:07.537Z,24.93
2019-02-18T13:07:37.504Z,26.57
2019-02-18T13:10:34.139Z,26.67
2019-02-18T13:12:53.931Z,25.30
2019-02-18T13:15:23.024Z,24.57
2019-02-18T13:17:55.560Z,24.73
2019-02-18T13:20:31.846Z,23.97
2019-02-18T13:23:26.753Z,24.57
2019-02-18T13:26:05.736Z,24.73
2019-02-18T13:28:34.812Z,25.57
2019-02-18T13:31:03.891Z,23.00
2019-02-18T13:33:33.452Z,25.63
2019-02-18T13:36:02.655Z,25.57
2019-02-18T13:38:35.620Z,23.20
2019-02-18T13:41:06.414Z,28.37
2019-02-18T13:43:41.251Z,25.20
2019-02-18T13:46:10.475Z,23.17
2019-02-18T13:48:39.480Z,22.53
2019-02-18T13:51:09.040Z,22.27
2019-02-18T13:53:38.009Z,22.47
2019-02-18T13:56:09.255Z,23.03
2019-02-18T13:58:38.270Z,23.93
2019-02-18T14:01:07.877Z,23.50
2019-02-18T14:03:38.631Z,21.30
2019-02-18T14:06:07.661Z,26.10
2019-02-18T14:08:39.636Z,22.67
2019-02-18T14:11:08.545Z,22.07
2019-02-18T14:13:38.741Z,22.90
2019-02-18T14:16:18.248Z,22.70
2019-02-18T14:18:47.059Z,21.77
2019-02-18T14:21:16.157Z,24.57
2019-02-18T14:23:45.083Z,22.77
2019-02-18T14:26:14.222Z,22.70
2019-02-18T14:28:43.432Z,22.43
2019-02-18T14:31:12.416Z,21.77
2019-02-18T14:33:41.326Z,26.60
2019-02-18T14:36:10.352Z,22.20
2019-02-18T14:38:39.776Z,24.20
2019-02-18T14:41:38.435Z,21.87
2019-02-18T14:44:15.035Z,23.77
2019-02-18T14:46:43.972Z,24.30
2019-02-18T14:49:12.905Z,21.73
2019-02-18T14:51:52.718Z,25.77
2019-02-18T14:54:33.223Z,24.90
2019-02-18T14:56:53.282Z,21.10
2019-02-18T15:02:45.469Z,26.40
2019-02-18T15:05:14.627Z,25.20
2019-02-18T15:07:45.876Z,25.00
2019-02-18T15:10:16.615Z,24.83
2019-02-18T15:12:45.577Z,25.97
2019-02-18T15:15:14.848Z,23.30
2019-02-18T15:17:49.671Z,24.67
2019-02-18T15:20:14.887Z,24.10
2019-02-18T15:23:07.230Z,24.43
2019-02-18T15:25:36.082Z,22.80
2019-02-18T15:28:04.967Z,26.07
2019-02-18T15:30:34.190Z,25.70
2019-02-18T15:33:24.380Z,24.57
2019-02-18T15:35:53.324Z,24.67
2019-02-18T15:38:41.047Z,25.80
2019-02-18T15:41:11.239Z,26.80
2019-02-18T15:43:42.478Z,23.63
2019-02-18T15:46:12.178Z,22.33
2019-02-18T15:48:41.498Z,25.77
2019-02-18T15:51:10.999Z,24.93
2019-02-18T15:53:40.402Z,23.33
2019-02-18T15:56:38.309Z,22.93
2019-02-18T15:59:08.928Z,22.43
2019-02-18T16:01:38.116Z,25.63
2019-02-18T16:04:07.225Z,24.13
2019-02-18T16:06:38.598Z,24.80
2019-02-18T16:09:09.693Z,23.10
2019-02-18T16:11:46.509Z,25.13
2019-02-18T16:14:16.009Z,24.27
2019-02-18T16:16:44.892Z,24.07
2019-02-18T16:19:13.919Z,23.87
2019-02-18T16:21:42.921Z,24.17
2019-02-18T16:24:19.589Z,22.90
2019-02-18T16:26:42.525Z,23.67
2019-02-18T16:29:11.427Z,26.37
2019-02-18T16:31:43.999Z,23.77
2019-02-18T16:34:13.087Z,24.47
2019-02-18T16:36:43.275Z,26.70
2019-02-18T16:39:14.168Z,25.57
2019-02-18T16:41:43.153Z,25.90
2019-02-18T16:44:12.467Z,26.30
2019-02-18T16:49:17.422Z,27.80
2019-02-18T16:54:46.644Z,28.30
2019-02-18T16:57:24.156Z,26.33
2019-02-18T16:59:50.828Z,28.63
2019-02-18T17:05:11.883Z,29.67
2019-02-18T17:07:49.365Z,28.30
2019-02-18T17:13:10.639Z,30.43
2019-02-18T17:15:57.213Z,28.87
2019-02-18T17:18:31.480Z,30.77
2019-02-18T17:21:31.614Z,31.13
2019-02-18T17:24:00.575Z,33.30
2019-02-18T17:26:29.537Z,34.33
2019-02-18T17:28:58.714Z,33.07
2019-02-18T17:31:27.743Z,34.23
2019-02-18T17:33:58.048Z,31.70
2019-02-18T17:36:27.135Z,34.37
2019-02-18T17:39:15.349Z,34.60
2019-02-18T17:41:46.305Z,35.10
2019-02-18T17:44:23.571Z,34.80
2019-02-18T17:46:52.601Z,36.73
2019-02-18T17:49:21.755Z,36.63
2019-02-18T17:51:51.798Z,38.83
2019-02-18T17:54:22.564Z,40.27
2019-02-18T17:56:56.892Z,36.77
2019-02-18T17:59:32.967Z,37.30
2019-02-18T18:02:02.015Z,37.37
2019-02-18T18:04:58.531Z,39.70
2019-02-18T18:07:29.254Z,38.73
2019-02-18T18:09:58.326Z,38.70
2019-02-18T18:12:27.296Z,41.07
2019-02-18T18:14:58.353Z,37.10
2019-02-18T18:17:27.741Z,45.63
2019-02-18T18:20:00.222Z,42.43
2019-02-18T18:22:32.750Z,54.27
2019-02-18T18:25:06.907Z,41.47
2019-02-18T18:27:48.096Z,46.43
2019-02-18T18:30:40.816Z,47.20
2019-02-18T18:33:10.973Z,45.63
2019-02-18T18:35:41.509Z,43.67
2019-02-18T18:38:11.519Z,44.77
2019-02-18T18:40:47.311Z,47.67
2019-02-18T18:43:33.830Z,48.57
2019-02-18T18:46:02.130Z,49.37
2019-02-18T18:48:31.746Z,47.60
2019-02-18T18:51:10.642Z,50.83
2019-02-18T18:56:36.647Z,51.70
2019-02-18T18:59:12.493Z,49.27
2019-02-18T19:05:00.819Z,45.77
2019-02-18T19:07:34.953Z,45.03
2019-02-18T19:21:48.964Z,49.83
2019-02-18T19:24:42.952Z,52.23
2019-02-18T19:27:27.625Z,49.73
2019-02-18T19:29:59.384Z,49.63
2019-02-18T19:32:34.571Z,46.27
2019-02-18T19:35:17.951Z,45.70
2019-02-18T19:37:49.037Z,45.33
2019-02-18T19:40:20.594Z,43.67
2019-02-18T19:42:54.666Z,47.47
2019-02-18T19:45:27.655Z,41.63
2019-02-18T19:47:59.505Z,45.10
2019-02-18T19:50:41.643Z,45.30
2019-02-18T19:59:16.936Z,45.00
2019-02-18T20:01:45.944Z,47.00
2019-02-18T20:06:57.909Z,46.73
2019-02-18T20:09:36.209Z,42.37
2019-02-18T20:12:08.682Z,40.57
2019-02-18T20:14:47.013Z,42.97
2019-02-18T20:17:22.825Z,38.63
2019-02-18T20:19:57.367Z,38.53
2019-02-18T20:22:25.993Z,39.40
2019-02-18T20:24:57.689Z,40.13
2019-02-18T20:27:28.650Z,37.37
2019-02-18T20:29:59.988Z,38.30
2019-02-18T20:32:29.124Z,43.27
2019-02-18T20:35:15.793Z,41.47
2019-02-18T20:37:46.680Z,40.73
2019-02-18T20:40:19.295Z,40.57
2019-02-18T20:45:21.016Z,39.33
2019-02-18T20:47:50.472Z,41.57
2019-02-18T20:50:26.656Z,44.47
2019-02-18T20:52:55.580Z,44.03
2019-02-18T20:55:24.608Z,45.30
2019-02-18T20:57:57.588Z,42.97
2019-02-18T21:30:51.141Z,47.67
2019-02-18T21:33:20.004Z,46.47
2019-02-18T21:35:50.121Z,40.63
2019-02-18T21:38:20.515Z,42.00
2019-02-18T21:40:55.362Z,44.23
2019-02-18T21:43:28.642Z,39.17
2019-02-18T21:46:27.332Z,41.00
2019-02-18T21:49:11.525Z,38.13
2019-02-18T21:51:44.402Z,38.33
2019-02-18T21:54:19.192Z,40.00
2019-02-18T21:56:48.051Z,38.60
2019-02-18T21:59:17.891Z,37.33
2019-02-18T22:01:47.266Z,45.93
2019-02-18T22:04:22.148Z,37.70
2019-02-18T22:06:57.716Z,36.50
2019-02-18T22:12:11.488Z,35.10
2019-02-18T22:14:41.988Z,33.93
2019-02-18T22:17:13.989Z,37.23
2019-02-18T22:19:43.016Z,37.23
2019-02-18T22:22:16.617Z,35.50
2019-02-18T22:24:46.956Z,35.53
2019-02-18T22:27:16.124Z,36.90
2019-02-18T22:29:49.506Z,34.13
2019-02-18T22:32:27.369Z,37.53
2019-02-18T22:35:00.299Z,33.93
2019-02-18T22:37:46.254Z,39.87
2019-02-18T22:40:15.825Z,37.83
2019-02-18T22:42:44.959Z,36.53
2019-02-18T22:45:18.560Z,34.50
2019-02-18T22:47:51.916Z,33.50
2019-02-18T22:50:23.420Z,34.17
2019-02-18T22:52:52.756Z,33.27
2019-02-18T22:55:23.299Z,32.03
2019-02-18T22:57:53.128Z,31.57
2019-02-18T23:00:43.376Z,32.73
2019-02-18T23:03:15.748Z,37.17
2019-02-18T23:05:44.439Z,33.60
2019-02-18T23:08:14.753Z,35.90
2019-02-18T23:10:49.438Z,34.27
2019-02-18T23:13:21.028Z,35.03
2019-02-18T23:15:52.982Z,36.73
2019-02-18T23:18:24.187Z,35.57
2019-02-18T23:20:55.556Z,33.87
2019-02-18T23:23:27.135Z,39.87
2019-02-18T23:25:57.236Z,35.93
2019-02-18T23:28:30.701Z,34.20
2019-02-18T23:31:01.740Z,32.37
2019-02-18T23:33:33.734Z,33.37
2019-02-18T23:36:09.125Z,33.77
2019-02-18T23:38:43.262Z,32.83
2019-02-18T23:41:21.958Z,35.50
2019-02-18T23:43:51.258Z,34.30
2019-02-18T23:46:28.753Z,36.00
2019-02-18T23:48:57.777Z,35.17
2019-02-18T23:51:27.077Z,35.43
2019-02-18T23:54:04.167Z,34.20
2019-02-18T23:56:38.080Z,31.23
2019-02-18T23:59:10.840Z,36.10
